Wetterdaten: Woche 08.08.16 - 14.08.16 (KW32)
Datum Zeit Temp. I. Temp. A. Feuchte I. Feuchte A. Luftdruck Regen Wind Richtung Sonnenschein UV Solar Taupunkt Windchill Windben
08.08.2016 00:00 24,9 C 14,0 C 53 % 91 % 1023,4 hPa 0,0 l/m 0,0 km/h (0 Bft) N 0,00 h 0,0 UV-I 0 W/m 12,5 C 14,0 C 0,0 km/h (0 Bft)
08.08.2016 01:00 24,9 C 13,5 C 54 % 91 % 1023,0 hPa 0,0 l/m 0,0 km/h (0 Bft) N 0,00 h 0,0 UV-I 0 W/m 12,1 C 13,5 C 0,0 km/h (0 Bft)
08.08.2016 02:00 24,8 C 13,0 C 54 % 91 % 1022,5 hPa 0,0 l/m 0,0 km/h (0 Bft) N 0,00 h 0,0 UV-I 0 W/m 11,5 C 13,0 C 0,0 km/h (0 Bft)
08.08.2016 03:00 24,8 C 12,3 C 54 % 91 % 1022,0 hPa 0,0 l/m 0,0 km/h (0 Bft) N 0,00 h 0,0 UV-I 0 W/m 10,9 C 12,3 C 0,0 km/h (0 Bft)
08.08.2016 04:00 24,8 C 11,8 C 54 % 92 % 1021,8 hPa 0,0 l/m 0,0 km/h (0 Bft) N 0,00 h 0,0 UV-I 0 W/m 10,6 C 11,8 C 0,0 km/h (0 Bft)
08.08.2016 05:00 24,7 C 11,3 C 55 % 92 % 1021,6 hPa 0,0 l/m 0,0 km/h (0 Bft) N 0,00 h 0,0 UV-I 5 W/m 10,1 C 11,3 C 0,0 km/h (0 Bft)
08.08.2016 06:00 24,7 C 10,8 C 55 % 93 % 1021,4 hPa 0,0 l/m 0,0 km/h (0 Bft) N 0,00 h 0,0 UV-I 13 W/m 9,7 C 10,8 C 0,0 km/h (0 Bft)
08.08.2016 07:00 24,8 C 12,0 C 55 % 95 % 1021,0 hPa 0,0 l/m 0,0 km/h (0 Bft) N 0,58 h 0,6 UV-I 148 W/m 11,2 C 12,0 C 0,0 km/h (0 Bft)
08.08.2016 08:00 24,8 C 17,3 C 55 % 79 % 1020,9 hPa 0,0 l/m 1,7 km/h (1 Bft) W-SW 1,00 h 1,3 UV-I 374 W/m 13,6 C 17,2 C 3,4 km/h (1 Bft)
08.08.2016 09:00 24,8 C 19,9 C 55 % 68 % 1020,4 hPa 0,0 l/m 6,1 km/h (2 Bft) S 1,00 h 2,4 UV-I 519 W/m 13,9 C 19,4 C 10,0 km/h (2 Bft)
08.08.2016 10:00 24,7 C 22,1 C 54 % 61 % 1020,0 hPa 0,0 l/m 6,3 km/h (2 Bft) S 1,00 h 3,8 UV-I 652 W/m 14,3 C 21,8 C 11,7 km/h (2 Bft)
08.08.2016 11:00 24,8 C 23,6 C 53 % 58 % 1019,5 hPa 0,0 l/m 8,0 km/h (2 Bft) S 1,00 h 5,3 UV-I 787 W/m 14,9 C 22,9 C 14,5 km/h (3 Bft)
08.08.2016 12:00 24,9 C 25,0 C 54 % 53 % 1018,8 hPa 0,0 l/m 7,8 km/h (2 Bft) W-SW 1,00 h 5,9 UV-I 713 W/m 14,7 C 24,5 C 15,6 km/h (3 Bft)
08.08.2016 13:00 25,1 C 25,5 C 54 % 50 % 1018,4 hPa 0,0 l/m 7,7 km/h (2 Bft) W-SW 0,95 h 5,7 UV-I 728 W/m 14,4 C 25,0 C 14,5 km/h (3 Bft)
08.08.2016 14:00 25,4 C 26,4 C 52 % 46 % 1018,0 hPa 0,0 l/m 9,4 km/h (2 Bft) W-SW 0,95 h 5,3 UV-I 640 W/m 13,7 C 25,9 C 18,1 km/h (3 Bft)
08.08.2016 15:00 25,6 C 25,9 C 52 % 50 % 1017,7 hPa 0,0 l/m 7,2 km/h (2 Bft) W 1,00 h 3,6 UV-I 483 W/m 14,7 C 25,5 C 14,6 km/h (3 Bft)
08.08.2016 16:00 25,7 C 25,3 C 53 % 53 % 1017,3 hPa 0,0 l/m 6,8 km/h (2 Bft) W-SW 0,88 h 2,2 UV-I 312 W/m 15,1 C 24,9 C 12,8 km/h (3 Bft)
08.08.2016 17:00 25,6 C 25,1 C 53 % 53 % 1017,0 hPa 0,0 l/m 6,2 km/h (2 Bft) W-SW 0,70 h 1,5 UV-I 278 W/m 14,9 C 24,7 C 12,1 km/h (2 Bft)
08.08.2016 18:00 25,5 C 24,8 C 53 % 53 % 1016,7 hPa 0,0 l/m 6,6 km/h (2 Bft) W-SW 0,25 h 0,9 UV-I 117 W/m 14,5 C 24,5 C 12,9 km/h (3 Bft)
08.08.2016 19:00 25,7 C 23,9 C 53 % 55 % 1016,6 hPa 0,0 l/m 5,1 km/h (1 Bft) W-SW 0,00 h 0,0 UV-I 44 W/m 14,4 C 23,7 C 9,5 km/h (2 Bft)
08.08.2016 20:00 25,7 C 22,3 C 53 % 64 % 1016,8 hPa 0,0 l/m 0,7 km/h (0 Bft) W 0,00 h 0,0 UV-I 12 W/m 15,2 C 22,3 C 2,5 km/h (1 Bft)
08.08.2016 21:00 25,4 C 20,6 C 54 % 72 % 1017,1 hPa 0,0 l/m 0,0 km/h (0 Bft) N 0,00 h 0,0 UV-I 0 W/m 15,3 C 20,6 C 0,0 km/h (0 Bft)
08.08.2016 22:00 25,6 C 18,6 C 54 % 81 % 1017,2 hPa 0,0 l/m 0,0 km/h (0 Bft) N 0,00 h 0,0 UV-I 0 W/m 15,3 C 18,6 C 0,0 km/h (0 Bft)
08.08.2016 23:00 25,5 C 17,1 C 55 % 87 % 1017,2 hPa 0,0 l/m 0,0 km/h (0 Bft) N 0,00 h 0,0 UV-I 0 W/m 14,9 C 17,1 C 0,0 km/h (0 Bft)
09.08.2016 00:00 25,6 C 15,7 C 55 % 91 % 1017,1 hPa 0,0 l/m 0,0 km/h (0 Bft) N 0,00 h 0,0 UV-I 0 W/m 14,2 C 15,7 C 0,0 km/h (0 Bft)
09.08.2016 01:00 25,8 C 15,3 C 55 % 91 % 1017,2 hPa 0,0 l/m 0,0 km/h (0 Bft) N 0,00 h 0,0 UV-I 0 W/m 13,8 C 15,3 C 0,0 km/h (0 Bft)
09.08.2016 02:00 25,8 C 14,6 C 56 % 89 % 1017,1 hPa 0,0 l/m 0,0 km/h (0 Bft) N 0,00 h 0,0 UV-I 0 W/m 12,8 C 14,6 C 0,0 km/h (0 Bft)
09.08.2016 03:00 25,8 C 13,8 C 56 % 90 % 1017,0 hPa 0,0 l/m 0,0 km/h (0 Bft) N 0,00 h 0,0 UV-I 0 W/m 12,2 C 13,8 C 0,0 km/h (0 Bft)
09.08.2016 04:00 25,8 C 13,1 C 56 % 91 % 1017,0 hPa 0,0 l/m 0,0 km/h (0 Bft) N 0,00 h 0,0 UV-I 0 W/m 11,6 C 13,1 C 0,0 km/h (0 Bft)
09.08.2016 05:00 25,8 C 12,9 C 57 % 93 % 1016,7 hPa 0,0 l/m 0,0 km/h (0 Bft) N 0,00 h 0,0 UV-I 0 W/m 11,7 C 12,9 C 0,0 km/h (0 Bft)
09.08.2016 06:00 25,9 C 13,1 C 57 % 93 % 1016,8 hPa 0,0 l/m 0,0 km/h (0 Bft) N 0,00 h 0,0 UV-I 10 W/m 12,0 C 13,1 C 0,0 km/h (0 Bft)
09.08.2016 07:00 25,8 C 13,5 C 57 % 94 % 1017,1 hPa 0,0 l/m 0,0 km/h (0 Bft) W 0,00 h 0,0 UV-I 27 W/m 12,5 C 13,5 C 0,2 km/h (0 Bft)
09.08.2016 08:00 25,9 C 14,1 C 57 % 92 % 1017,3 hPa 0,0 l/m 1,1 km/h (1 Bft) N 0,00 h 0,0 UV-I 24 W/m 12,8 C 14,0 C 2,6 km/h (1 Bft)
09.08.2016 09:00 25,5 C 14,3 C 56 % 92 % 1017,5 hPa 0,2 l/m 0,1 km/h (0 Bft) N-NW 0,07 h 0,8 UV-I 67 W/m 12,9 C 14,3 C 0,4 km/h (0 Bft)
09.08.2016 10:00 25,3 C 14,9 C 55 % 91 % 1017,6 hPa 0,0 l/m 0,0 km/h (0 Bft) N 0,48 h 1,3 UV-I 153 W/m 13,4 C 14,9 C 0,3 km/h (0 Bft)
09.08.2016 11:00 25,4 C 15,6 C 55 % 89 % 1017,6 hPa 0,0 l/m 0,0 km/h (0 Bft) N-NW 0,57 h 1,5 UV-I 166 W/m 13,7 C 15,6 C 0,4 km/h (0 Bft)
09.08.2016 12:00 25,3 C 14,2 C 55 % 91 % 1018,1 hPa 1,6 l/m 7,1 km/h (2 Bft) NW 0,13 h 1,0 UV-I 69 W/m 12,6 C 12,8 C 10,3 km/h (2 Bft)
09.08.2016 13:00 24,9 C 12,7 C 53 % 92 % 1018,8 hPa 0,0 l/m 0,8 km/h (0 Bft) NW 0,43 h 1,3 UV-I 128 W/m 11,5 C 12,7 C 2,4 km/h (1 Bft)
09.08.2016 14:00 24,5 C 14,1 C 52 % 87 % 1018,7 hPa 0,0 l/m 0,1 km/h (0 Bft) W-NW 1,00 h 2,9 UV-I 330 W/m 11,9 C 14,1 C 0,4 km/h (0 Bft)
09.08.2016 15:00 23,9 C 16,3 C 52 % 81 % 1018,4 hPa 0,0 l/m 1,1 km/h (1 Bft) W-NW 1,00 h 3,9 UV-I 496 W/m 13,0 C 16,3 C 2,9 km/h (1 Bft)
09.08.2016 16:00 24,2 C 16,4 C 52 % 76 % 1018,0 hPa 0,0 l/m 0,4 km/h (0 Bft) W 0,85 h 1,6 UV-I 210 W/m 12,1 C 16,4 C 1,0 km/h (0 Bft)
09.08.2016 17:00 24,2 C 17,0 C 52 % 74 % 1017,9 hPa 0,0 l/m 0,7 km/h (0 Bft) S 0,77 h 1,6 UV-I 276 W/m 12,3 C 17,0 C 2,3 km/h (1 Bft)
09.08.2016 18:00 24,6 C 16,8 C 52 % 71 % 1017,7 hPa 0,0 l/m 0,1 km/h (0 Bft) S 0,23 h 0,8 UV-I 141 W/m 11,6 C 16,8 C 0,3 km/h (0 Bft)
09.08.2016 19:00 24,9 C 16,3 C 52 % 74 % 1017,8 hPa 0,0 l/m 0,0 km/h (0 Bft) N 0,00 h 0,5 UV-I 46 W/m 11,8 C 16,3 C 0,0 km/h (0 Bft)
09.08.2016 20:00 25,1 C 15,8 C 52 % 77 % 1018,2 hPa 0,0 l/m 1,0 km/h (0 Bft) N 0,00 h 0,0 UV-I 22 W/m 11,7 C 15,8 C 2,3 km/h (1 Bft)
09.08.2016 21:00 25,0 C 14,7 C 53 % 79 % 1018,8 hPa 0,0 l/m 0,6 km/h (0 Bft) N 0,00 h 0,0 UV-I 0 W/m 11,1 C 14,7 C 1,9 km/h (1 Bft)
09.08.2016 22:00 25,0 C 13,5 C 53 % 81 % 1018,5 hPa 0,0 l/m 0,0 km/h (0 Bft) N 0,00 h 0,0 UV-I 0 W/m 10,4 C 13,5 C 0,1 km/h (0 Bft)
09.08.2016 23:00 24,9 C 12,5 C 53 % 86 % 1018,7 hPa 0,0 l/m 0,0 km/h (0 Bft) N 0,00 h 0,0 UV-I 0 W/m 10,2 C 12,5 C 0,0 km/h (0 Bft)
10.08.2016 00:00 24,8 C 11,9 C 53 % 88 % 1018,6 hPa 0,0 l/m 0,0 km/h (0 Bft) N 0,00 h 0,0 UV-I 0 W/m 10,1 C 11,9 C 0,0 km/h (0 Bft)
10.08.2016 01:00 24,7 C 11,5 C 54 % 90 % 1018,3 hPa 0,0 l/m 0,0 km/h (0 Bft) N 0,00 h 0,0 UV-I 0 W/m 10,0 C 11,5 C 0,2 km/h (0 Bft)
10.08.2016 02:00 24,7 C 11,2 C 54 % 91 % 1018,2 hPa 0,0 l/m 0,2 km/h (0 Bft) W-NW 0,00 h 0,0 UV-I 0 W/m 9,7 C 11,2 C 0,5 km/h (0 Bft)
10.08.2016 03:00 24,6 C 11,0 C 54 % 91 % 1017,8 hPa 0,0 l/m 0,0 km/h (0 Bft) N 0,00 h 0,0 UV-I 0 W/m 9,6 C 11,0 C 0,1 km/h (0 Bft)
10.08.2016 04:00 24,6 C 10,8 C 55 % 92 % 1017,5 hPa 0,0 l/m 0,0 km/h (0 Bft) N 0,00 h 0,0 UV-I 0 W/m 9,6 C 10,8 C 0,0 km/h (0 Bft)
10.08.2016 05:00 24,6 C 10,8 C 55 % 92 % 1017,4 hPa 0,0 l/m 0,0 km/h (0 Bft) N 0,00 h 0,0 UV-I 0 W/m 9,5 C 10,8 C 0,0 km/h (0 Bft)
10.08.2016 06:00 24,6 C 10,7 C 55 % 92 % 1017,3 hPa 0,0 l/m 0,0 km/h (0 Bft) N 0,00 h 0,0 UV-I 7 W/m 9,5 C 10,7 C 0,0 km/h (0 Bft)
10.08.2016 07:00 24,6 C 10,8 C 56 % 93 % 1017,9 hPa 0,0 l/m 0,9 km/h (0 Bft) W 0,00 h 0,0 UV-I 15 W/m 9,6 C 10,8 C 2,2 km/h (1 Bft)
10.08.2016 08:00 24,6 C 11,0 C 56 % 93 % 1018,0 hPa 0,0 l/m 0,0 km/h (0 Bft) N 0,00 h 0,0 UV-I 38 W/m 9,9 C 11,0 C 0,0 km/h (0 Bft)
10.08.2016 09:00 24,7 C 11,7 C 55 % 93 % 1017,7 hPa 0,0 l/m 0,0 km/h (0 Bft) N 0,17 h 0,8 UV-I 121 W/m 10,6 C 11,7 C 0,0 km/h (0 Bft)
10.08.2016 10:00 24,6 C 13,5 C 53 % 84 % 1017,7 hPa 0,2 l/m 1,4 km/h (1 Bft) W-SW 1,00 h 2,7 UV-I 441 W/m 10,9 C 13,5 C 2,7 km/h (1 Bft)
10.08.2016 11:00 24,5 C 15,0 C 52 % 76 % 1017,2 hPa 0,0 l/m 1,2 km/h (1 Bft) SW 0,68 h 2,6 UV-I 330 W/m 10,8 C 15,0 C 3,0 km/h (1 Bft)
10.08.2016 12:00 24,2 C 14,1 C 51 % 78 % 1017,4 hPa 0,4 l/m 8,1 km/h (2 Bft) N 0,42 h 2,4 UV-I 209 W/m 10,3 C 12,7 C 14,5 km/h (3 Bft)
10.08.2016 13:00 24,4 C 12,2 C 52 % 91 % 1018,0 hPa 0,2 l/m 2,1 km/h (1 Bft) N 0,75 h 2,0 UV-I 240 W/m 10,8 C 12,0 C 4,5 km/h (1 Bft)
10.08.2016 14:00 24,2 C 14,4 C 50 % 81 % 1017,6 hPa 0,0 l/m 0,8 km/h (0 Bft) N-NO 0,70 h 2,7 UV-I 374 W/m 11,1 C 14,4 C 3,1 km/h (1 Bft)
10.08.2016 15:00 23,4 C 14,6 C 48 % 73 % 1017,5 hPa 1,0 l/m 4,7 km/h (1 Bft) NW 0,52 h 3,1 UV-I 369 W/m 9,8 C 13,7 C 8,5 km/h (2 Bft)
10.08.2016 16:00 23,4 C 13,1 C 49 % 81 % 1017,9 hPa 0,2 l/m 4,8 km/h (1 Bft) N 0,58 h 2,0 UV-I 332 W/m 9,9 C 12,5 C 9,2 km/h (2 Bft)
10.08.2016 17:00 23,8 C 13,2 C 50 % 79 % 1018,5 hPa 0,2 l/m 7,2 km/h (2 Bft) NW 0,58 h 1,2 UV-I 220 W/m 9,6 C 12,1 C 13,2 km/h (3 Bft)
10.08.2016 18:00 23,9 C 12,0 C 50 % 82 % 1019,1 hPa 0,6 l/m 8,0 km/h (2 Bft) N 0,00 h 0,5 UV-I 60 W/m 9,0 C 10,5 C 13,9 km/h (3 Bft)
10.08.2016 19:00 24,2 C 10,8 C 50 % 87 % 1019,7 hPa 0,0 l/m 0,1 km/h (0 Bft) N-NO 0,00 h 0,0 UV-I 45 W/m 8,7 C 10,8 C 0,3 km/h (0 Bft)
10.08.2016 20:00 24,3 C 10,1 C 50 % 92 % 1020,1 hPa 0,0 l/m 0,0 km/h (0 Bft) N 0,00 h 0,0 UV-I 7 W/m 8,8 C 10,1 C 0,0 km/h (0 Bft)
10.08.2016 21:00 24,4 C 9,3 C 51 % 94 % 1020,6 hPa 0,0 l/m 0,0 km/h (0 Bft) N 0,00 h 0,0 UV-I 0 W/m 8,4 C 9,3 C 0,0 km/h (0 Bft)
10.08.2016 22:00 24,6 C 8,9 C 51 % 95 % 1021,2 hPa 0,0 l/m 0,0 km/h (0 Bft) N 0,00 h 0,0 UV-I 0 W/m 8,1 C 8,9 C 0,0 km/h (0 Bft)
10.08.2016 23:00 24,4 C 8,5 C 51 % 95 % 1021,5 hPa 0,0 l/m 0,0 km/h (0 Bft) N 0,00 h 0,0 UV-I 0 W/m 7,7 C 8,5 C 0,0 km/h (0 Bft)
11.08.2016 00:00 24,3 C 7,8 C 51 % 94 % 1021,8 hPa 0,0 l/m 0,0 km/h (0 Bft) N 0,00 h 0,0 UV-I 0 W/m 6,9 C 7,8 C 0,0 km/h (0 Bft)
11.08.2016 01:00 24,2 C 7,0 C 52 % 94 % 1022,1 hPa 0,0 l/m 0,0 km/h (0 Bft) N 0,00 h 0,0 UV-I 0 W/m 6,1 C 7,0 C 0,0 km/h (0 Bft)
11.08.2016 02:00 24,1 C 6,2 C 52 % 94 % 1022,2 hPa 0,0 l/m 0,0 km/h (0 Bft) O-NO 0,00 h 0,0 UV-I 0 W/m 5,3 C 6,2 C 0,2 km/h (0 Bft)
11.08.2016 03:00 24,1 C 5,3 C 52 % 94 % 1022,5 hPa 0,0 l/m 0,0 km/h (0 Bft) N 0,00 h 0,0 UV-I 0 W/m 4,4 C 5,3 C 0,0 km/h (0 Bft)
11.08.2016 04:00 24,1 C 4,6 C 53 % 94 % 1022,9 hPa 0,0 l/m 0,0 km/h (0 Bft) N 0,00 h 0,0 UV-I 0 W/m 3,8 C 4,6 C 0,0 km/h (0 Bft)
11.08.2016 05:00 24,0 C 4,3 C 53 % 95 % 1023,2 hPa 0,0 l/m 0,0 km/h (0 Bft) N 0,00 h 0,0 UV-I 0 W/m 3,5 C 4,3 C 0,0 km/h (0 Bft)
11.08.2016 06:00 24,1 C 3,8 C 54 % 95 % 1023,5 hPa 0,0 l/m 0,0 km/h (0 Bft) N 0,00 h 0,0 UV-I 15 W/m 3,0 C 3,8 C 0,0 km/h (0 Bft)
11.08.2016 07:00 24,1 C 5,1 C 54 % 96 % 1023,9 hPa 0,0 l/m 0,0 km/h (0 Bft) N 0,50 h 0,6 UV-I 147 W/m 4,5 C 5,1 C 0,0 km/h (0 Bft)
11.08.2016 08:00 24,2 C 8,4 C 54 % 93 % 1024,2 hPa 0,0 l/m 0,0 km/h (0 Bft) N 0,97 h 1,1 UV-I 338 W/m 7,3 C 8,4 C 0,0 km/h (0 Bft)
11.08.2016 09:00 24,3 C 11,2 C 53 % 83 % 1024,2 hPa 0,0 l/m 0,0 km/h (0 Bft) N 1,00 h 2,1 UV-I 524 W/m 8,4 C 11,2 C 0,0 km/h (0 Bft)
11.08.2016 10:00 24,2 C 13,5 C 51 % 71 % 1024,1 hPa 0,2 l/m 1,7 km/h (1 Bft) W-NW 0,93 h 3,2 UV-I 640 W/m 8,3 C 13,5 C 4,3 km/h (1 Bft)
11.08.2016 11:00 24,2 C 14,4 C 50 % 63 % 1023,8 hPa 0,0 l/m 5,0 km/h (1 Bft) W-SW 0,92 h 3,5 UV-I 545 W/m 7,3 C 14,0 C 10,9 km/h (2 Bft)
11.08.2016 12:00 24,1 C 15,2 C 47 % 56 % 1023,6 hPa 0,0 l/m 5,3 km/h (1 Bft) W-SW 1,00 h 4,3 UV-I 567 W/m 6,5 C 14,9 C 11,6 km/h (2 Bft)
11.08.2016 13:00 24,2 C 16,0 C 48 % 53 % 1023,3 hPa 0,0 l/m 4,5 km/h (1 Bft) W-SW 1,00 h 4,6 UV-I 602 W/m 6,5 C 15,7 C 10,5 km/h (2 Bft)
11.08.2016 14:00 24,2 C 16,3 C 46 % 50 % 1023,2 hPa 0,0 l/m 4,5 km/h (1 Bft) W-SW 1,00 h 4,2 UV-I 577 W/m 5,9 C 16,1 C 10,6 km/h (2 Bft)
11.08.2016 15:00 23,9 C 16,8 C 43 % 46 % 1022,9 hPa 0,0 l/m 5,3 km/h (1 Bft) W-SW 1,00 h 3,3 UV-I 493 W/m 5,1 C 16,4 C 11,5 km/h (2 Bft)
11.08.2016 16:00 23,6 C 16,7 C 40 % 47 % 1022,7 hPa 0,0 l/m 5,7 km/h (1 Bft) W 1,00 h 2,5 UV-I 462 W/m 5,3 C 16,3 C 12,4 km/h (3 Bft)
11.08.2016 17:00 23,4 C 16,6 C 40 % 45 % 1022,3 hPa 0,0 l/m 6,5 km/h (2 Bft) W-SW 1,00 h 1,5 UV-I 298 W/m 4,7 C 16,0 C 14,1 km/h (3 Bft)
11.08.2016 18:00 23,9 C 15,5 C 42 % 50 % 1022,3 hPa 0,0 l/m 2,4 km/h (1 Bft) W 0,12 h 0,7 UV-I 118 W/m 5,1 C 15,5 C 6,6 km/h (2 Bft)
11.08.2016 19:00 24,2 C 14,7 C 43 % 53 % 1022,4 hPa 0,0 l/m 1,1 km/h (1 Bft) W 0,00 h 0,0 UV-I 51 W/m 5,1 C 14,7 C 3,0 km/h (1 Bft)
11.08.2016 20:00 24,1 C 13,5 C 43 % 63 % 1022,5 hPa 0,0 l/m 0,0 km/h (0 Bft) N 0,00 h 0,0 UV-I 15 W/m 6,6 C 13,5 C 0,0 km/h (0 Bft)
11.08.2016 21:00 24,2 C 12,4 C 44 % 71 % 1022,7 hPa 0,0 l/m 0,0 km/h (0 Bft) N 0,00 h 0,0 UV-I 0 W/m 7,3 C 12,4 C 0,0 km/h (0 Bft)
11.08.2016 22:00 24,2 C 12,1 C 45 % 76 % 1022,8 hPa 0,0 l/m 0,0 km/h (0 Bft) N 0,00 h 0,0 UV-I 0 W/m 8,0 C 12,1 C 0,0 km/h (0 Bft)
11.08.2016 23:00 24,0 C 11,6 C 46 % 79 % 1022,8 hPa 0,0 l/m 0,0 km/h (0 Bft) N 0,00 h 0,0 UV-I 0 W/m 8,0 C 11,6 C 0,0 km/h (0 Bft)
12.08.2016 00:00 23,9 C 11,1 C 46 % 81 % 1022,7 hPa 0,0 l/m 0,0 km/h (0 Bft) N 0,00 h 0,0 UV-I 0 W/m 8,0 C 11,1 C 0,0 km/h (0 Bft)
12.08.2016 01:00 23,9 C 10,9 C 47 % 82 % 1022,7 hPa 0,0 l/m 0,6 km/h (0 Bft) SW 0,00 h 0,0 UV-I 0 W/m 7,9 C 10,9 C 2,3 km/h (1 Bft)
12.08.2016 02:00 23,8 C 10,8 C 47 % 84 % 1022,8 hPa 0,4 l/m 1,2 km/h (1 Bft) W 0,00 h 0,0 UV-I 0 W/m 8,2 C 10,8 C 3,6 km/h (1 Bft)
12.08.2016 03:00 23,8 C 10,3 C 48 % 90 % 1022,6 hPa 0,6 l/m 0,1 km/h (0 Bft) S 0,00 h 0,0 UV-I 0 W/m 8,7 C 10,3 C 0,7 km/h (0 Bft)
12.08.2016 04:00 23,8 C 10,0 C 49 % 92 % 1022,2 hPa 0,0 l/m 0,1 km/h (0 Bft) S 0,00 h 0,0 UV-I 0 W/m 8,8 C 10,0 C 0,6 km/h (0 Bft)
12.08.2016 05:00 23,7 C 10,0 C 49 % 93 % 1022,1 hPa 0,0 l/m 2,5 km/h (1 Bft) S 0,00 h 0,0 UV-I 0 W/m 8,9 C 10,0 C 5,8 km/h (2 Bft)
12.08.2016 06:00 23,7 C 10,0 C 49 % 93 % 1022,3 hPa 0,0 l/m 2,0 km/h (1 Bft) S 0,00 h 0,0 UV-I 7 W/m 9,0 C 10,0 C 4,9 km/h (1 Bft)
12.08.2016 07:00 23,7 C 10,2 C 50 % 94 % 1022,6 hPa 0,0 l/m 2,1 km/h (1 Bft) S 0,00 h 0,0 UV-I 14 W/m 9,2 C 10,2 C 5,5 km/h (1 Bft)
12.08.2016 08:00 23,7 C 10,5 C 50 % 95 % 1022,7 hPa 0,0 l/m 2,9 km/h (1 Bft) S 0,00 h 0,0 UV-I 30 W/m 9,7 C 10,3 C 6,4 km/h (2 Bft)
12.08.2016 09:00 23,7 C 10,9 C 50 % 96 % 1022,9 hPa 0,4 l/m 2,6 km/h (1 Bft) S 0,00 h 0,6 UV-I 61 W/m 10,3 C 10,9 C 7,1 km/h (2 Bft)
12.08.2016 10:00 23,7 C 11,4 C 50 % 96 % 1023,1 hPa 0,0 l/m 3,1 km/h (1 Bft) S 0,00 h 0,7 UV-I 73 W/m 10,8 C 11,4 C 8,0 km/h (2 Bft)
12.08.2016 11:00 23,6 C 12,0 C 50 % 96 % 1023,4 hPa 0,0 l/m 1,5 km/h (1 Bft) S 0,00 h 0,9 UV-I 83 W/m 11,4 C 12,0 C 5,0 km/h (1 Bft)
12.08.2016 12:00 23,4 C 12,6 C 51 % 96 % 1023,5 hPa 0,2 l/m 2,3 km/h (1 Bft) SW 0,00 h 0,9 UV-I 82 W/m 11,9 C 12,5 C 7,8 km/h (2 Bft)
12.08.2016 13:00 23,2 C 13,2 C 52 % 95 % 1023,7 hPa 0,2 l/m 1,9 km/h (1 Bft) W-SW 0,07 h 1,1 UV-I 100 W/m 12,4 C 13,1 C 5,9 km/h (2 Bft)
12.08.2016 14:00 23,5 C 14,0 C 52 % 93 % 1023,9 hPa 0,0 l/m 3,4 km/h (1 Bft) W-SW 0,47 h 1,5 UV-I 147 W/m 13,0 C 13,8 C 8,5 km/h (2 Bft)
12.08.2016 15:00 23,7 C 14,5 C 52 % 92 % 1024,1 hPa 0,0 l/m 2,4 km/h (1 Bft) W-SW 0,02 h 0,9 UV-I 92 W/m 13,3 C 14,4 C 6,2 km/h (2 Bft)
12.08.2016 16:00 23,8 C 14,6 C 53 % 94 % 1024,3 hPa 0,0 l/m 0,6 km/h (0 Bft) W-SW 0,00 h 0,6 UV-I 68 W/m 13,6 C 14,6 C 3,0 km/h (1 Bft)
12.08.2016 17:00 23,8 C 15,1 C 53 % 93 % 1024,4 hPa 0,0 l/m 1,4 km/h (1 Bft) W-SW 0,00 h 0,5 UV-I 48 W/m 13,9 C 15,0 C 3,7 km/h (1 Bft)
12.08.2016 18:00 23,9 C 15,1 C 54 % 92 % 1024,6 hPa 0,0 l/m 3,0 km/h (1 Bft) W-SW 0,00 h 0,0 UV-I 28 W/m 13,8 C 14,9 C 6,9 km/h (2 Bft)
12.08.2016 19:00 24,1 C 15,0 C 54 % 93 % 1024,8 hPa 0,0 l/m 1,1 km/h (1 Bft) W-SW 0,00 h 0,0 UV-I 11 W/m 14,0 C 15,0 C 4,2 km/h (1 Bft)
12.08.2016 20:00 24,0 C 15,0 C 54 % 94 % 1025,1 hPa 0,0 l/m 0,5 km/h (0 Bft) W-SW 0,00 h 0,0 UV-I 0 W/m 14,1 C 15,0 C 2,5 km/h (1 Bft)
12.08.2016 21:00 24,1 C 15,0 C 55 % 95 % 1025,5 hPa 0,0 l/m 0,2 km/h (0 Bft) SW 0,00 h 0,0 UV-I 0 W/m 14,2 C 15,0 C 1,3 km/h (1 Bft)
12.08.2016 22:00 24,2 C 14,9 C 55 % 96 % 1025,7 hPa 0,0 l/m 0,1 km/h (0 Bft) W-SW 0,00 h 0,0 UV-I 0 W/m 14,3 C 14,9 C 0,5 km/h (0 Bft)
12.08.2016 23:00 24,0 C 15,0 C 55 % 96 % 1025,6 hPa 0,0 l/m 0,0 km/h (0 Bft) N 0,00 h 0,0 UV-I 0 W/m 14,4 C 15,0 C 0,1 km/h (0 Bft)
13.08.2016 00:00 23,9 C 15,1 C 55 % 96 % 1025,5 hPa 0,0 l/m 0,6 km/h (0 Bft) SW 0,00 h 0,0 UV-I 0 W/m 14,5 C 15,1 C 1,9 km/h (1 Bft)
13.08.2016 01:00 23,7 C 15,2 C 55 % 96 % 1025,3 hPa 0,0 l/m 0,0 km/h (0 Bft) W-SW 0,00 h 0,0 UV-I 0 W/m 14,6 C 15,2 C 0,1 km/h (0 Bft)
13.08.2016 02:00 23,7 C 15,2 C 56 % 96 % 1025,0 hPa 0,0 l/m 0,0 km/h (0 Bft) W-SW 0,00 h 0,0 UV-I 0 W/m 14,5 C 15,2 C 0,3 km/h (0 Bft)
13.08.2016 03:00 23,6 C 14,9 C 56 % 96 % 1024,7 hPa 0,0 l/m 0,0 km/h (0 Bft) N 0,00 h 0,0 UV-I 0 W/m 14,3 C 14,9 C 0,2 km/h (0 Bft)
13.08.2016 04:00 23,7 C 14,7 C 56 % 96 % 1024,5 hPa 0,0 l/m 0,0 km/h (0 Bft) N 0,00 h 0,0 UV-I 0 W/m 14,1 C 14,7 C 0,1 km/h (0 Bft)
13.08.2016 05:00 23,6 C 14,9 C 56 % 97 % 1024,4 hPa 0,0 l/m 0,2 km/h (0 Bft) S-SO 0,00 h 0,0 UV-I 0 W/m 14,4 C 14,9 C 1,3 km/h (1 Bft)
13.08.2016 06:00 23,6 C 15,1 C 56 % 97 % 1024,4 hPa 0,2 l/m 0,1 km/h (0 Bft) S 0,00 h 0,0 UV-I 7 W/m 14,6 C 15,1 C 0,2 km/h (0 Bft)
13.08.2016 07:00 23,7 C 15,3 C 57 % 97 % 1024,3 hPa 0,0 l/m 1,0 km/h (0 Bft) S 0,00 h 0,0 UV-I 46 W/m 14,9 C 15,3 C 2,7 km/h (1 Bft)
13.08.2016 08:00 23,9 C 15,7 C 57 % 96 % 1024,5 hPa 0,0 l/m 2,3 km/h (1 Bft) SW 0,00 h 0,7 UV-I 81 W/m 15,1 C 15,6 C 4,7 km/h (1 Bft)
13.08.2016 09:00 23,7 C 17,2 C 58 % 91 % 1024,4 hPa 0,0 l/m 2,5 km/h (1 Bft) S 0,92 h 1,8 UV-I 269 W/m 15,8 C 17,1 C 6,7 km/h (2 Bft)
13.08.2016 10:00 23,7 C 18,5 C 58 % 86 % 1024,3 hPa 0,0 l/m 2,7 km/h (1 Bft) S 0,93 h 2,0 UV-I 259 W/m 16,0 C 18,4 C 6,6 km/h (2 Bft)
13.08.2016 11:00 23,8 C 19,0 C 58 % 83 % 1023,9 hPa 0,0 l/m 1,8 km/h (1 Bft) W-SW 0,93 h 1,9 UV-I 212 W/m 16,1 C 19,0 C 5,0 km/h (1 Bft)
13.08.2016 12:00 23,9 C 19,9 C 58 % 75 % 1023,5 hPa 0,0 l/m 6,1 km/h (2 Bft) W-SW 0,93 h 2,1 UV-I 206 W/m 15,3 C 19,4 C 11,0 km/h (2 Bft)
13.08.2016 13:00 23,9 C 21,8 C 58 % 68 % 1022,9 hPa 0,0 l/m 6,2 km/h (2 Bft) W 1,00 h 4,8 UV-I 621 W/m 15,5 C 21,4 C 11,9 km/h (2 Bft)
13.08.2016 14:00 24,1 C 22,7 C 58 % 63 % 1022,6 hPa 0,0 l/m 6,9 km/h (2 Bft) W 1,00 h 3,9 UV-I 412 W/m 15,2 C 22,2 C 13,7 km/h (3 Bft)
13.08.2016 15:00 24,1 C 24,0 C 58 % 59 % 1022,1 hPa 0,0 l/m 6,9 km/h (2 Bft) W-SW 1,00 h 4,4 UV-I 706 W/m 15,4 C 23,6 C 14,0 km/h (3 Bft)
13.08.2016 16:00 24,3 C 23,8 C 57 % 60 % 1021,6 hPa 0,0 l/m 3,6 km/h (1 Bft) W-SW 0,82 h 2,3 UV-I 355 W/m 15,4 C 23,7 C 8,6 km/h (2 Bft)
13.08.2016 17:00 24,5 C 23,9 C 58 % 58 % 1021,3 hPa 0,0 l/m 4,9 km/h (1 Bft) W-SW 0,93 h 1,7 UV-I 358 W/m 15,0 C 23,6 C 10,7 km/h (2 Bft)
13.08.2016 18:00 24,6 C 23,6 C 57 % 56 % 1021,0 hPa 0,0 l/m 6,2 km/h (2 Bft) W 0,32 h 1,0 UV-I 108 W/m 14,4 C 23,3 C 13,0 km/h (3 Bft)
13.08.2016 19:00 24,6 C 22,6 C 58 % 59 % 1021,0 hPa 0,0 l/m 3,2 km/h (1 Bft) W 0,00 h 0,0 UV-I 21 W/m 14,3 C 22,5 C 7,8 km/h (2 Bft)
13.08.2016 20:00 24,6 C 20,3 C 58 % 70 % 1021,1 hPa 0,0 l/m 0,0 km/h (0 Bft) N 0,00 h 0,0 UV-I 9 W/m 14,5 C 20,3 C 0,0 km/h (0 Bft)
13.08.2016 21:00 24,5 C 17,4 C 57 % 83 % 1021,2 hPa 0,0 l/m 0,0 km/h (0 Bft) N 0,00 h 0,0 UV-I 0 W/m 14,4 C 17,4 C 0,0 km/h (0 Bft)
13.08.2016 22:00 24,6 C 15,8 C 57 % 89 % 1021,4 hPa 0,0 l/m 0,0 km/h (0 Bft) N 0,00 h 0,0 UV-I 0 W/m 14,0 C 15,8 C 0,0 km/h (0 Bft)
13.08.2016 23:00 24,6 C 14,6 C 57 % 92 % 1021,5 hPa 0,0 l/m 0,0 km/h (0 Bft) N 0,00 h 0,0 UV-I 0 W/m 13,3 C 14,6 C 0,0 km/h (0 Bft)
14.08.2016 00:00 24,3 C 13,7 C 58 % 94 % 1021,6 hPa 0,0 l/m 0,0 km/h (0 Bft) N 0,00 h 0,0 UV-I 0 W/m 12,7 C 13,7 C 0,0 km/h (0 Bft)
14.08.2016 01:00 24,2 C 13,2 C 58 % 94 % 1021,4 hPa 0,0 l/m 0,0 km/h (0 Bft) N 0,00 h 0,0 UV-I 0 W/m 12,2 C 13,2 C 0,0 km/h (0 Bft)
14.08.2016 02:00 24,1 C 12,5 C 58 % 94 % 1021,3 hPa 0,0 l/m 0,0 km/h (0 Bft) N 0,00 h 0,0 UV-I 0 W/m 11,7 C 12,5 C 0,0 km/h (0 Bft)
14.08.2016 03:00 24,0 C 12,1 C 58 % 95 % 1021,3 hPa 0,0 l/m 0,2 km/h (0 Bft) NW 0,00 h 0,0 UV-I 0 W/m 11,3 C 12,1 C 0,9 km/h (0 Bft)
14.08.2016 04:00 23,6 C 12,1 C 59 % 95 % 1021,2 hPa 0,0 l/m 0,0 km/h (0 Bft) N 0,00 h 0,0 UV-I 0 W/m 11,3 C 12,1 C 0,0 km/h (0 Bft)
14.08.2016 05:00 23,2 C 11,8 C 60 % 95 % 1021,2 hPa 0,0 l/m 0,0 km/h (0 Bft) N 0,00 h 0,0 UV-I 0 W/m 11,0 C 11,8 C 0,0 km/h (0 Bft)
14.08.2016 06:00 23,2 C 11,3 C 60 % 95 % 1021,4 hPa 0,0 l/m 0,0 km/h (0 Bft) N 0,00 h 0,0 UV-I 20 W/m 10,5 C 11,3 C 0,0 km/h (0 Bft)
14.08.2016 07:00 23,1 C 12,1 C 61 % 96 % 1021,5 hPa 0,0 l/m 0,0 km/h (0 Bft) N 0,35 h 0,6 UV-I 116 W/m 11,5 C 12,1 C 0,0 km/h (0 Bft)
14.08.2016 08:00 23,1 C 15,8 C 61 % 91 % 1021,6 hPa 0,0 l/m 0,0 km/h (0 Bft) N 1,00 h 1,1 UV-I 316 W/m 14,3 C 15,8 C 0,0 km/h (0 Bft)
14.08.2016 09:00 23,7 C 18,9 C 60 % 80 % 1021,4 hPa 0,0 l/m 0,0 km/h (0 Bft) N 1,00 h 2,1 UV-I 493 W/m 15,4 C 18,9 C 0,0 km/h (0 Bft)
14.08.2016 10:00 24,0 C 21,6 C 59 % 72 % 1021,1 hPa 0,0 l/m 0,2 km/h (0 Bft) W-NW 1,00 h 3,4 UV-I 604 W/m 16,2 C 21,6 C 1,3 km/h (1 Bft)
14.08.2016 11:00 24,0 C 23,3 C 59 % 64 % 1021,0 hPa 0,0 l/m 1,7 km/h (1 Bft) W-SW 1,00 h 4,7 UV-I 722 W/m 16,0 C 23,2 C 4,8 km/h (1 Bft)
14.08.2016 12:00 24,3 C 24,3 C 59 % 55 % 1020,7 hPa 0,0 l/m 5,3 km/h (1 Bft) W 1,00 h 5,5 UV-I 622 W/m 14,7 C 24,0 C 10,9 km/h (2 Bft)
14.08.2016 13:00 24,5 C 25,3 C 58 % 50 % 1020,4 hPa 0,0 l/m 6,0 km/h (2 Bft) W-SW 0,98 h 6,0 UV-I 773 W/m 13,9 C 24,9 C 12,1 km/h (2 Bft)
14.08.2016 14:00 24,6 C 26,0 C 57 % 48 % 1020,1 hPa 0,0 l/m 6,0 km/h (2 Bft) W-SW 1,00 h 5,1 UV-I 820 W/m 14,1 C 25,7 C 11,9 km/h (2 Bft)
14.08.2016 15:00 24,4 C 26,1 C 58 % 49 % 1020,0 hPa 0,0 l/m 4,7 km/h (1 Bft) NW 1,00 h 3,9 UV-I 678 W/m 14,5 C 26,0 C 10,0 km/h (2 Bft)
14.08.2016 16:00 24,3 C 24,6 C 58 % 51 % 1020,0 hPa 0,0 l/m 5,1 km/h (1 Bft) NW 0,97 h 2,0 UV-I 290 W/m 13,9 C 24,4 C 10,2 km/h (2 Bft)
14.08.2016 17:00 24,3 C 24,2 C 58 % 52 % 1019,9 hPa 0,0 l/m 5,9 km/h (2 Bft) NW 0,70 h 1,4 UV-I 271 W/m 13,8 C 23,9 C 11,9 km/h (2 Bft)
14.08.2016 18:00 24,3 C 23,6 C 56 % 52 % 1020,0 hPa 0,0 l/m 5,0 km/h (1 Bft) W 0,32 h 0,9 UV-I 114 W/m 13,1 C 23,3 C 10,6 km/h (2 Bft)
14.08.2016 19:00 24,2 C 21,2 C 56 % 66 % 1020,3 hPa 0,0 l/m 4,0 km/h (1 Bft) N 0,00 h 0,0 UV-I 28 W/m 14,5 C 21,1 C 9,6 km/h (2 Bft)
14.08.2016 20:00 24,1 C 19,1 C 56 % 72 % 1020,7 hPa 0,0 l/m 0,2 km/h (0 Bft) N-NO 0,00 h 0,0 UV-I 9 W/m 13,9 C 19,1 C 0,6 km/h (0 Bft)
14.08.2016 21:00 24,6 C 17,4 C 57 % 78 % 1021,2 hPa 0,0 l/m 0,0 km/h (0 Bft) N 0,00 h 0,0 UV-I 0 W/m 13,6 C 17,4 C 0,0 km/h (0 Bft)
14.08.2016 22:00 24,6 C 16,1 C 56 % 82 % 1021,7 hPa 0,0 l/m 0,0 km/h (0 Bft) N 0,00 h 0,0 UV-I 0 W/m 13,1 C 16,1 C 0,0 km/h (0 Bft)
14.08.2016 23:00 24,4 C 14,7 C 57 % 88 % 1022,0 hPa 0,0 l/m 0,0 km/h (0 Bft) N 0,00 h 0,0 UV-I 0 W/m 12,8 C 14,7 C 0,0 km/h (0 Bft)
Min-Datum _ 12.08.16 11.08.16 11.08.16 08.08.16 08.08.16 - 08.08.16 - - - - 11.08.16 11.08.16 08.08.16
_ Min-Zeit 12:49 06:22 17:20 14:42 18:58 - 00:00 - - - - 06:22 06:22 00:00
Minimum _ 22,8 C 3,7 C 38 % 42 % 1016,5 hPa - 0,0 km/h (0 Bft) - - - - 3,0 C 3,7 C 0,0 km/h (0 Bft)
Max-Datum _ 09.08.16 14.08.16 14.08.16 08.08.16 12.08.16 09.08.16 10.08.16 - 08.08.16 08.08.16 10.08.16 14.08.16 14.08.16 10.08.16
_ Max-Zeit 06:22 15:20 06:38 07:55 22:21 12:48 16:57 - 15:35 12:28 14:22 11:05 15:20 16:57
Maximum _ 26,0 C 27,0 C 61 % 97 % 1025,8 hPa 1,6 l/m 24,1 km/h
N (4 Bft)
- 0,03 h 7,2 UV-I 1106 W/m 17,4 C 27,0 C 38,6 km/h
N-NW (5 Bft)
Durchschnitt _ 24,4 C 15,2 C 54 % 81 % 1020,9 hPa #6,8 l/m 1,8 km/h (1 Bft) W-SW #51:20 h 2,3 UV-I 253 W/m 11,5 C 15,0 C 4,0 km/h (1 Bft)